createdAt,value
2019-05-03T00:00:48.901Z,0.00
2019-05-03T00:01:48.831Z,0.00
2019-05-03T00:03:42.505Z,0.00
2019-05-03T00:04:42.245Z,0.00
2019-05-03T00:06:34.547Z,0.00
2019-05-03T00:07:34.341Z,0.00
2019-05-03T00:09:27.179Z,0.00
2019-05-03T00:10:27.041Z,0.00
2019-05-03T00:12:21.985Z,0.00
2019-05-03T00:13:21.755Z,0.00
2019-05-03T00:15:12.614Z,0.00
2019-05-03T00:16:12.550Z,0.00
2019-05-03T00:18:05.317Z,0.00
2019-05-03T00:19:05.246Z,0.00
2019-05-03T00:20:58.095Z,0.00
2019-05-03T00:21:58.001Z,0.00
2019-05-03T00:23:52.296Z,0.00
2019-05-03T00:25:04.563Z,0.00
2019-05-03T00:26:43.570Z,0.00
2019-05-03T00:27:43.511Z,0.00
2019-05-03T00:29:36.356Z,0.00
2019-05-03T00:30:36.256Z,0.00
2019-05-03T00:32:29.061Z,0.00
2019-05-03T00:33:28.976Z,0.00
2019-05-03T00:35:22.593Z,0.00
2019-05-03T00:36:22.400Z,0.00
2019-05-03T00:38:14.538Z,0.00
2019-05-03T00:39:14.404Z,0.00
2019-05-03T00:41:07.209Z,0.00
2019-05-03T00:42:07.159Z,0.00
2019-05-03T00:44:02.087Z,0.00
2019-05-03T00:45:02.128Z,0.00
2019-05-03T00:46:52.610Z,0.00
2019-05-03T00:47:52.772Z,0.00
2019-05-03T00:49:45.467Z,0.00
2019-05-03T00:50:45.283Z,0.00
2019-05-03T00:52:38.079Z,0.00
2019-05-03T00:53:37.989Z,0.00
2019-05-03T00:55:32.628Z,0.00
2019-05-03T00:56:32.134Z,0.00
2019-05-03T00:58:23.531Z,0.00
2019-05-03T00:59:23.447Z,0.00
2019-05-03T01:01:16.225Z,0.00
2019-05-03T01:02:16.144Z,0.00
2019-05-03T01:04:08.951Z,0.00
2019-05-03T01:05:08.899Z,0.00
2019-05-03T01:07:02.258Z,0.00
2019-05-03T01:08:01.949Z,0.00
2019-05-03T01:09:54.393Z,0.00
2019-05-03T01:10:54.352Z,0.00
2019-05-03T01:12:47.183Z,0.00
2019-05-03T01:13:47.032Z,0.00
2019-05-03T01:15:40.033Z,0.00
2019-05-03T01:16:39.761Z,0.00
2019-05-03T01:18:32.587Z,0.00
2019-05-03T01:19:32.626Z,0.00
2019-05-03T01:21:25.253Z,0.00
2019-05-03T01:22:25.188Z,0.00
2019-05-03T01:24:18.327Z,0.00
2019-05-03T01:25:29.173Z,0.00
2019-05-03T01:27:12.341Z,0.00
2019-05-03T01:28:12.252Z,0.00
2019-05-03T01:30:03.458Z,0.00
2019-05-03T01:31:03.350Z,0.00
2019-05-03T01:32:56.162Z,0.00
2019-05-03T01:33:56.082Z,0.00
2019-05-03T01:35:48.914Z,0.00
2019-05-03T01:36:48.840Z,0.00
2019-05-03T01:38:42.327Z,0.00
2019-05-03T01:39:42.110Z,0.00
2019-05-03T01:41:34.418Z,0.00
2019-05-03T01:42:34.288Z,0.00
2019-05-03T01:44:27.149Z,0.00
2019-05-03T01:45:27.059Z,0.00
2019-05-03T01:47:21.842Z,0.00
2019-05-03T01:48:21.597Z,0.00
2019-05-03T01:50:12.705Z,0.00
2019-05-03T01:51:12.452Z,0.00
2019-05-03T01:53:05.249Z,0.00
2019-05-03T01:54:05.157Z,0.00
2019-05-03T01:55:54.416Z,0.00
2019-05-03T01:56:58.905Z,0.00
2019-05-03T01:58:47.095Z,0.00
2019-05-03T01:59:47.033Z,0.00
2019-05-03T02:01:42.072Z,0.00
2019-05-03T02:02:41.847Z,0.00
2019-05-03T02:04:32.586Z,0.00
2019-05-03T02:05:32.452Z,0.00
2019-05-03T02:07:25.288Z,0.00
2019-05-03T02:08:25.268Z,0.00
2019-05-03T02:10:18.040Z,0.00
2019-05-03T02:11:17.934Z,0.00
2019-05-03T02:13:12.279Z,0.00
2019-05-03T02:14:12.373Z,0.00
2019-05-03T02:16:03.476Z,0.00
2019-05-03T02:17:03.357Z,0.00
2019-05-03T02:18:56.138Z,0.00
2019-05-03T02:19:56.042Z,0.00
2019-05-03T02:21:48.843Z,0.00
2019-05-03T02:22:48.760Z,0.00
2019-05-03T02:24:42.262Z,0.00
2019-05-03T02:25:41.995Z,0.00
2019-05-03T02:27:34.349Z,0.00
2019-05-03T02:28:34.295Z,0.00
2019-05-03T02:30:27.124Z,0.00
2019-05-03T02:31:27.028Z,0.00
2019-05-03T02:33:19.792Z,0.00
2019-05-03T02:34:19.717Z,0.00
2019-05-03T02:36:13.658Z,0.00
2019-05-03T02:37:13.846Z,0.00
2019-05-03T02:39:05.636Z,0.00
2019-05-03T02:40:05.153Z,0.00
2019-05-03T02:42:02.925Z,0.00
2019-05-03T02:42:57.920Z,0.00
2019-05-03T02:44:50.664Z,0.00
2019-05-03T02:45:50.566Z,0.00
2019-05-03T02:47:43.407Z,0.00
2019-05-03T02:48:45.688Z,0.00
2019-05-03T02:50:36.249Z,0.00
2019-05-03T02:51:36.202Z,0.00
2019-05-03T02:53:28.943Z,0.00
2019-05-03T02:54:28.823Z,0.00
2019-05-03T02:56:22.408Z,0.00
2019-05-03T02:57:21.533Z,0.00
2019-05-03T02:59:15.836Z,0.00
2019-05-03T03:00:16.243Z,0.00
2019-05-03T03:02:07.088Z,4.00
2019-05-03T03:03:06.943Z,0.00
2019-05-03T03:04:59.773Z,4.00
2019-05-03T03:05:59.709Z,4.00
2019-05-03T03:07:52.480Z,4.00
2019-05-03T03:08:52.369Z,4.00
2019-05-03T03:10:45.679Z,4.00
2019-05-03T03:11:45.765Z,8.00
2019-05-03T03:13:37.922Z,12.00
2019-05-03T03:14:37.867Z,12.00
2019-05-03T03:16:30.571Z,12.00
2019-05-03T03:17:30.528Z,16.00
2019-05-03T03:19:25.963Z,20.00
2019-05-03T03:20:25.409Z,24.00
2019-05-03T03:22:16.083Z,28.00
2019-05-03T03:23:18.025Z,28.00
2019-05-03T03:25:08.769Z,40.00
2019-05-03T03:26:08.703Z,40.00
2019-05-03T03:28:01.626Z,52.00
2019-05-03T03:29:01.412Z,56.00
2019-05-03T03:30:57.616Z,64.00
2019-05-03T03:31:58.170Z,72.00
2019-05-03T03:33:47.739Z,84.00
2019-05-03T03:34:54.564Z,92.00
2019-05-03T03:36:57.943Z,104.00
2019-05-03T03:37:39.557Z,112.00
2019-05-03T03:39:32.277Z,128.00
2019-05-03T03:40:32.193Z,136.00
2019-05-03T03:42:25.265Z,156.00
2019-05-03T03:43:25.952Z,164.00
2019-05-03T03:45:17.670Z,180.00
2019-05-03T03:46:17.598Z,192.00
2019-05-03T03:48:10.419Z,216.00
2019-05-03T03:49:10.385Z,224.00
2019-05-03T03:51:05.046Z,252.00
2019-05-03T03:52:05.840Z,264.00
2019-05-03T03:53:55.873Z,296.00
2019-05-03T03:54:55.745Z,312.00
2019-05-03T03:56:59.270Z,348.00
2019-05-03T03:57:48.437Z,364.00
2019-05-03T03:59:41.225Z,404.00
2019-05-03T04:00:41.138Z,424.00
2019-05-03T04:02:35.353Z,468.00
2019-05-03T04:03:36.140Z,492.00
2019-05-03T04:05:26.661Z,528.00
2019-05-03T04:06:27.013Z,548.00
2019-05-03T04:08:19.366Z,592.00
2019-05-03T04:09:19.292Z,612.00
2019-05-03T04:11:12.103Z,664.00
2019-05-03T04:12:12.026Z,692.00
2019-05-03T04:14:05.437Z,748.00
2019-05-03T04:15:05.698Z,780.00
2019-05-03T04:16:57.611Z,828.00
2019-05-03T04:17:57.485Z,848.00
2019-05-03T04:19:50.273Z,888.00
2019-05-03T04:20:50.204Z,904.00
2019-05-03T04:22:45.282Z,940.00
2019-05-03T04:23:42.860Z,956.00
2019-05-03T04:25:35.849Z,1004.00
2019-05-03T04:26:35.861Z,1020.00
2019-05-03T04:28:28.453Z,1036.00
2019-05-03T04:29:28.301Z,1028.00
2019-05-03T04:31:21.164Z,1028.00
2019-05-03T04:32:24.856Z,1020.00
2019-05-03T04:34:16.223Z,1004.00
2019-05-03T04:35:16.324Z,1012.00
2019-05-03T04:37:06.483Z,1024.00
2019-05-03T04:38:06.382Z,1024.00
2019-05-03T04:39:59.204Z,1036.00
2019-05-03T04:40:59.095Z,1032.00
2019-05-03T04:42:51.945Z,1028.00
2019-05-03T04:43:51.886Z,1040.00
2019-05-03T04:45:45.597Z,1088.00
2019-05-03T04:46:46.513Z,1124.00
2019-05-03T04:48:37.347Z,1200.00
2019-05-03T04:49:37.271Z,1252.00
2019-05-03T04:51:30.065Z,1332.00
2019-05-03T04:52:30.030Z,1368.00
2019-05-03T04:54:25.042Z,1432.00
2019-05-03T04:55:22.679Z,1444.00
2019-05-03T04:57:17.578Z,1432.00
2019-05-03T04:58:16.157Z,1412.00
2019-05-03T05:00:11.257Z,1424.00
2019-05-03T05:01:08.045Z,1456.00
2019-05-03T05:03:00.843Z,1556.00
2019-05-03T05:04:00.741Z,1620.00
2019-05-03T05:05:55.494Z,1720.00
2019-05-03T05:06:55.499Z,1732.00
2019-05-03T05:08:46.239Z,1916.00
2019-05-03T05:09:46.181Z,2076.00
2019-05-03T05:11:38.957Z,2104.00
2019-05-03T05:12:38.965Z,2096.00
2019-05-03T05:14:31.648Z,2308.00
2019-05-03T05:15:31.575Z,2528.00
2019-05-03T05:17:26.303Z,2704.00
2019-05-03T05:18:26.365Z,2804.00
2019-05-03T05:20:17.040Z,3412.00
2019-05-03T05:21:16.968Z,4100.00
2019-05-03T05:23:09.751Z,6348.00
2019-05-03T05:24:09.655Z,8244.00
2019-05-03T05:26:02.520Z,12856.00
2019-05-03T05:27:02.344Z,14592.00
2019-05-03T05:28:55.101Z,15072.00
2019-05-03T05:29:55.429Z,15136.00
2019-05-03T05:31:47.824Z,15200.00
2019-05-03T05:32:47.715Z,15296.00
2019-05-03T05:34:41.058Z,16000.00
2019-05-03T05:35:40.467Z,16160.00
2019-05-03T05:37:35.118Z,16512.00
2019-05-03T05:38:34.669Z,16288.00
2019-05-03T05:40:25.976Z,15200.00
2019-05-03T05:41:25.876Z,15392.00
2019-05-03T05:43:18.668Z,17376.00
2019-05-03T05:44:18.595Z,17760.00
2019-05-03T05:46:11.386Z,18304.00
2019-05-03T05:47:11.299Z,18176.00
2019-05-03T05:49:04.346Z,18720.00
2019-05-03T05:50:04.971Z,18784.00
2019-05-03T05:51:56.915Z,19136.00
2019-05-03T05:52:56.812Z,19200.00
2019-05-03T05:54:49.566Z,19296.00
2019-05-03T05:55:49.539Z,19360.00
2019-05-03T05:57:42.302Z,19648.00
2019-05-03T05:58:42.228Z,19680.00
2019-05-03T06:00:35.927Z,19680.00
2019-05-03T06:01:35.306Z,19968.00
2019-05-03T06:03:27.749Z,20608.00
2019-05-03T06:04:27.661Z,9788.00
2019-05-03T06:06:20.467Z,20864.00
2019-05-03T06:07:20.374Z,20864.00
2019-05-03T06:09:15.282Z,21632.00
2019-05-03T06:10:14.693Z,22208.00
2019-05-03T06:12:05.928Z,22848.00
2019-05-03T06:13:05.848Z,22112.00
2019-05-03T06:14:58.662Z,19904.00
2019-05-03T06:15:58.591Z,9296.00
2019-05-03T06:17:51.505Z,15808.00
2019-05-03T06:18:51.325Z,22528.00
2019-05-03T06:20:45.170Z,22528.00
2019-05-03T06:21:44.827Z,22528.00
2019-05-03T06:23:36.824Z,22656.00
2019-05-03T06:24:36.749Z,23200.00
2019-05-03T06:26:29.591Z,23520.00
2019-05-03T06:27:29.462Z,3748.00
2019-05-03T06:29:22.308Z,24800.00
2019-05-03T06:30:22.225Z,5376.00
2019-05-03T06:32:15.381Z,4536.00
2019-05-03T06:33:14.936Z,25312.00
2019-05-03T06:35:07.742Z,5576.00
2019-05-03T06:36:07.707Z,24736.00
2019-05-03T06:38:00.550Z,17920.00
2019-05-03T06:39:00.407Z,4396.00
2019-05-03T06:40:54.439Z,26176.00
2019-05-03T06:41:54.689Z,24288.00
2019-05-03T06:43:48.680Z,4500.00
2019-05-03T06:44:45.843Z,22368.00
2019-05-03T06:46:38.627Z,4668.00
2019-05-03T06:47:40.425Z,25440.00
2019-05-03T06:49:31.351Z,5916.00
2019-05-03T06:50:31.313Z,23872.00
2019-05-03T06:52:25.470Z,25696.00
2019-05-03T06:53:25.406Z,5568.00
2019-05-03T06:55:16.989Z,25600.00
2019-05-03T06:56:19.280Z,25664.00
2019-05-03T06:58:09.578Z,27488.00
2019-05-03T06:59:09.535Z,6504.00
2019-05-03T07:01:04.525Z,28736.00
2019-05-03T07:02:02.346Z,6072.00
2019-05-03T07:03:55.188Z,4912.00
2019-05-03T07:04:56.202Z,27392.00
2019-05-03T07:06:47.823Z,5888.00
2019-05-03T07:07:47.764Z,4568.00
2019-05-03T07:09:40.562Z,28736.00
2019-05-03T07:10:40.528Z,8452.00
2019-05-03T07:12:35.315Z,6680.00
2019-05-03T07:13:34.534Z,29344.00
2019-05-03T07:15:26.013Z,29216.00
2019-05-03T07:16:25.916Z,29184.00
2019-05-03T07:18:18.726Z,29280.00
2019-05-03T07:19:18.692Z,30240.00
2019-05-03T07:21:11.453Z,28992.00
2019-05-03T07:22:11.407Z,29088.00
2019-05-03T07:24:05.407Z,5724.00
2019-05-03T07:25:04.707Z,5264.00
2019-05-03T07:26:59.090Z,29920.00
2019-05-03T07:27:56.838Z,9012.00
2019-05-03T07:29:49.621Z,31744.00
2019-05-03T07:30:49.547Z,32128.00
2019-05-03T07:32:42.352Z,4368.00
2019-05-03T07:33:42.284Z,3864.00
2019-05-03T07:35:35.403Z,16256.00
2019-05-03T07:36:35.593Z,20032.00
2019-05-03T07:38:27.799Z,34112.00
2019-05-03T07:39:27.915Z,7012.00
2019-05-03T07:41:20.539Z,5076.00
2019-05-03T07:42:20.407Z,6088.00
2019-05-03T07:44:15.051Z,15936.00
2019-05-03T07:45:14.857Z,36288.00
2019-05-03T07:47:05.974Z,14016.00
2019-05-03T07:48:05.979Z,35072.00
2019-05-03T07:49:58.814Z,34816.00
2019-05-03T07:50:58.676Z,27488.00
2019-05-03T07:52:51.444Z,34432.00
2019-05-03T07:53:51.382Z,34784.00
2019-05-03T07:55:45.667Z,34720.00
2019-05-03T07:56:44.578Z,34720.00
2019-05-03T07:58:36.927Z,34464.00
2019-05-03T07:59:36.872Z,31936.00
2019-05-03T08:01:29.689Z,35968.00
2019-05-03T08:02:29.646Z,5644.00
2019-05-03T08:04:22.398Z,28576.00
2019-05-03T08:05:22.313Z,5480.00
2019-05-03T08:07:22.312Z,35296.00
2019-05-03T08:08:15.171Z,34816.00
2019-05-03T08:10:07.955Z,8540.00
2019-05-03T08:11:07.792Z,36384.00
2019-05-03T08:13:00.565Z,35872.00
2019-05-03T08:14:00.480Z,35584.00
2019-05-03T08:15:55.658Z,37248.00
2019-05-03T08:16:54.743Z,35040.00
2019-05-03T08:18:46.047Z,34336.00
2019-05-03T08:19:45.948Z,34272.00
2019-05-03T08:21:39.146Z,9716.00
2019-05-03T08:22:38.679Z,34912.00
2019-05-03T08:24:31.592Z,35136.00
2019-05-03T08:25:31.470Z,16672.00
2019-05-03T08:27:25.127Z,30144.00
2019-05-03T08:28:24.631Z,9364.00
2019-05-03T08:30:17.029Z,32864.00
2019-05-03T08:31:16.990Z,4912.00
2019-05-03T08:33:09.735Z,31168.00
2019-05-03T08:34:09.681Z,6352.00
2019-05-03T08:36:04.742Z,30784.00
2019-05-03T08:37:02.501Z,33056.00
2019-05-03T08:38:56.420Z,24032.00
2019-05-03T08:39:55.279Z,32672.00
2019-05-03T08:41:48.062Z,6016.00
2019-05-03T08:42:47.938Z,6072.00
2019-05-03T08:44:40.760Z,33344.00
2019-05-03T08:45:40.709Z,31488.00
2019-05-03T08:47:34.465Z,32896.00
2019-05-03T08:48:35.477Z,33632.00
2019-05-03T08:50:26.252Z,32416.00
2019-05-03T08:51:26.225Z,13688.00
2019-05-03T08:53:18.998Z,7308.00
2019-05-03T08:54:18.908Z,6756.00
2019-05-03T08:56:11.702Z,7280.00
2019-05-03T08:57:11.647Z,16544.00
2019-05-03T08:59:04.776Z,5908.00
2019-05-03T09:00:05.265Z,7128.00
2019-05-03T09:01:57.155Z,5596.00
2019-05-03T09:02:57.064Z,7388.00
2019-05-03T09:04:49.873Z,30784.00
2019-05-03T09:05:49.809Z,31040.00
2019-05-03T09:07:44.751Z,30656.00
2019-05-03T09:08:42.532Z,30880.00
2019-05-03T09:10:35.416Z,7572.00
2019-05-03T09:11:36.844Z,22400.00
2019-05-03T09:13:28.105Z,29952.00
2019-05-03T09:14:38.772Z,29600.00
2019-05-03T09:16:21.069Z,28544.00
2019-05-03T09:17:20.892Z,28544.00
2019-05-03T09:19:14.767Z,6948.00
2019-05-03T09:20:15.534Z,12672.00
2019-05-03T09:22:06.552Z,9068.00
2019-05-03T09:23:06.497Z,7208.00
2019-05-03T09:24:59.586Z,5728.00
2019-05-03T09:25:59.473Z,5232.00
2019-05-03T09:27:52.397Z,4532.00
2019-05-03T09:28:52.158Z,5316.00
2019-05-03T09:30:45.021Z,4040.00
2019-05-03T09:31:44.956Z,4212.00
2019-05-03T09:33:37.840Z,5036.00
2019-05-03T09:34:37.795Z,5920.00
2019-05-03T09:36:30.657Z,7096.00
2019-05-03T09:37:30.560Z,21568.00
2019-05-03T09:39:24.508Z,25408.00
2019-05-03T09:40:24.571Z,6048.00
2019-05-03T09:42:16.215Z,23744.00
2019-05-03T09:43:16.342Z,23680.00
2019-05-03T09:45:08.984Z,16192.00
2019-05-03T09:46:08.923Z,8048.00
2019-05-03T09:48:01.703Z,23840.00
2019-05-03T09:49:12.551Z,16480.00
2019-05-03T09:50:55.577Z,22752.00
2019-05-03T09:51:54.893Z,18464.00
2019-05-03T09:53:47.278Z,7228.00
2019-05-03T09:54:47.143Z,10004.00
2019-05-03T09:56:53.745Z,15136.00
2019-05-03T09:57:39.882Z,12304.00
2019-05-03T09:59:34.875Z,21024.00
2019-05-03T10:00:32.680Z,16992.00
2019-05-03T10:02:25.558Z,20096.00
2019-05-03T10:03:25.463Z,20416.00
2019-05-03T10:05:18.253Z,5716.00
2019-05-03T10:06:18.188Z,10512.00
2019-05-03T10:08:11.361Z,16512.00
2019-05-03T10:09:11.066Z,14912.00
2019-05-03T10:11:05.568Z,5424.00
2019-05-03T10:12:05.509Z,13184.00
2019-05-03T10:13:56.598Z,5060.00
2019-05-03T10:14:56.469Z,4644.00
2019-05-03T10:16:49.398Z,4220.00
2019-05-03T10:17:49.327Z,6080.00
2019-05-03T10:19:42.385Z,4400.00
2019-05-03T10:20:42.112Z,4788.00
2019-05-03T10:22:34.972Z,7920.00
2019-05-03T10:23:35.843Z,10156.00
2019-05-03T10:25:27.586Z,6572.00
2019-05-03T10:26:27.542Z,9796.00
2019-05-03T10:28:20.489Z,9320.00
2019-05-03T10:29:20.383Z,8640.00
2019-05-03T10:31:13.206Z,7980.00
2019-05-03T10:32:15.026Z,7712.00
2019-05-03T10:34:06.052Z,6904.00
2019-05-03T10:35:05.911Z,6640.00
2019-05-03T10:36:59.001Z,6592.00
2019-05-03T10:37:58.623Z,6420.00
2019-05-03T10:39:51.422Z,6168.00
2019-05-03T10:40:51.344Z,5836.00
2019-05-03T10:42:44.569Z,5908.00
2019-05-03T10:43:45.114Z,6280.00
2019-05-03T10:45:36.949Z,5872.00
2019-05-03T10:46:36.984Z,5648.00
2019-05-03T10:48:29.728Z,5428.00
2019-05-03T10:49:29.656Z,4752.00
2019-05-03T10:51:24.792Z,3608.00
2019-05-03T10:52:22.865Z,3256.00
2019-05-03T10:54:15.304Z,3172.00
2019-05-03T10:55:15.957Z,3552.00
2019-05-03T10:57:07.999Z,4280.00
2019-05-03T10:58:07.890Z,5400.00
2019-05-03T11:00:00.691Z,5800.00
2019-05-03T11:01:00.608Z,5624.00
2019-05-03T11:02:55.076Z,5148.00
2019-05-03T11:03:54.547Z,5088.00
2019-05-03T11:05:46.180Z,4664.00
2019-05-03T11:06:46.185Z,4576.00
2019-05-03T11:08:38.939Z,4436.00
2019-05-03T11:09:48.700Z,4668.00
2019-05-03T11:11:31.730Z,4904.00
2019-05-03T11:12:31.583Z,5256.00
2019-05-03T11:14:25.368Z,6020.00
2019-05-03T11:15:25.909Z,5824.00
2019-05-03T11:17:17.043Z,5912.00
2019-05-03T11:18:17.014Z,5672.00
2019-05-03T11:20:09.808Z,4908.00
2019-05-03T11:21:09.725Z,4716.00
2019-05-03T11:23:02.486Z,4616.00
2019-05-03T11:24:02.447Z,4572.00
2019-05-03T11:25:55.530Z,4416.00
2019-05-03T11:26:55.850Z,4204.00
2019-05-03T11:28:47.916Z,3736.00
2019-05-03T11:29:47.844Z,3632.00
2019-05-03T11:31:40.685Z,3684.00
2019-05-03T11:32:40.599Z,3796.00
2019-05-03T11:34:35.329Z,4264.00
2019-05-03T11:35:35.065Z,4416.00
2019-05-03T11:37:26.570Z,4136.00
2019-05-03T11:38:26.132Z,3888.00
2019-05-03T11:40:19.073Z,3804.00
2019-05-03T11:41:29.583Z,3964.00
2019-05-03T11:43:11.649Z,4040.00
2019-05-03T11:44:11.601Z,4012.00
2019-05-03T11:46:04.789Z,3784.00
2019-05-03T11:47:05.819Z,4120.00
2019-05-03T11:48:57.505Z,4268.00
2019-05-03T11:49:57.424Z,4284.00
2019-05-03T11:51:50.233Z,4344.00
2019-05-03T11:52:50.187Z,4448.00
2019-05-03T11:54:45.078Z,4300.00
2019-05-03T11:55:46.108Z,4276.00
2019-05-03T11:57:35.956Z,4528.00
2019-05-03T11:58:35.726Z,4624.00
2019-05-03T12:00:28.494Z,4548.00
2019-05-03T12:01:28.461Z,4532.00
2019-05-03T12:03:21.331Z,4572.00
2019-05-03T12:04:21.176Z,4540.00
2019-05-03T12:06:15.676Z,4680.00
2019-05-03T12:07:15.321Z,4752.00
2019-05-03T12:09:06.966Z,5052.00
2019-05-03T12:10:16.459Z,5228.00
2019-05-03T12:11:59.683Z,5332.00
2019-05-03T12:12:59.624Z,5368.00
2019-05-03T12:14:52.656Z,5648.00
2019-05-03T12:15:52.547Z,5652.00
2019-05-03T12:17:54.147Z,5880.00
2019-05-03T12:18:52.922Z,6012.00
2019-05-03T12:20:39.530Z,6096.00
2019-05-03T12:21:39.178Z,5912.00
2019-05-03T12:23:32.184Z,5792.00
2019-05-03T12:24:31.369Z,5708.00
2019-05-03T12:26:27.127Z,5848.00
2019-05-03T12:27:24.406Z,5696.00
2019-05-03T12:29:16.427Z,5384.00
2019-05-03T12:30:16.331Z,5384.00
2019-05-03T12:32:09.087Z,5052.00
2019-05-03T12:33:09.034Z,4876.00
2019-05-03T12:35:01.839Z,4500.00
2019-05-03T12:36:01.778Z,4340.00
2019-05-03T12:37:55.601Z,4536.00
2019-05-03T12:38:54.898Z,4540.00
2019-05-03T12:40:47.323Z,4480.00
2019-05-03T12:41:48.213Z,4364.00
2019-05-03T12:43:40.097Z,3640.00
2019-05-03T12:44:40.018Z,3044.00
2019-05-03T12:46:32.777Z,2332.00
2019-05-03T12:47:34.697Z,2100.00
2019-05-03T12:49:25.494Z,2088.00
2019-05-03T12:50:25.423Z,2188.00
2019-05-03T12:52:18.835Z,2316.00
2019-05-03T12:53:18.187Z,2300.00
2019-05-03T12:55:11.095Z,2284.00
2019-05-03T12:56:13.454Z,2240.00
2019-05-03T12:58:05.903Z,2172.00
2019-05-03T12:59:05.745Z,2084.00
2019-05-03T13:00:56.588Z,1876.00
2019-05-03T13:01:56.491Z,1896.00
2019-05-03T13:03:49.321Z,2000.00
2019-05-03T13:04:51.978Z,2104.00
2019-05-03T13:06:42.158Z,2436.00
2019-05-03T13:07:42.001Z,2700.00
2019-05-03T13:09:35.766Z,3500.00
2019-05-03T13:10:34.765Z,3800.00
2019-05-03T13:12:27.722Z,4276.00
2019-05-03T13:13:27.421Z,4656.00
2019-05-03T13:15:20.379Z,4964.00
2019-05-03T13:16:20.242Z,5052.00
2019-05-03T13:18:15.553Z,4880.00
2019-05-03T13:19:15.090Z,4900.00
2019-05-03T13:21:06.307Z,4880.00
2019-05-03T13:22:05.876Z,4896.00
2019-05-03T13:23:58.679Z,4584.00
2019-05-03T13:24:58.608Z,4108.00
2019-05-03T13:26:51.382Z,2980.00
2019-05-03T13:27:51.323Z,2716.00
2019-05-03T13:29:45.347Z,2304.00
2019-05-03T13:30:45.321Z,2252.00
2019-05-03T13:32:36.860Z,2264.00
2019-05-03T13:33:36.787Z,2112.00
2019-05-03T13:35:29.577Z,1948.00
2019-05-03T13:36:29.499Z,1920.00
2019-05-03T13:38:22.295Z,1916.00
2019-05-03T13:39:22.224Z,1916.00
2019-05-03T13:41:15.044Z,1780.00
2019-05-03T13:42:14.966Z,1692.00
2019-05-03T13:44:07.752Z,1520.00
2019-05-03T13:45:07.652Z,1380.00
2019-05-03T13:47:00.502Z,1136.00
2019-05-03T13:48:00.406Z,1048.00
2019-05-03T13:49:55.133Z,972.00
2019-05-03T13:50:55.033Z,984.00
2019-05-03T13:52:45.933Z,1100.00
2019-05-03T13:53:45.921Z,1208.00
2019-05-03T13:55:38.667Z,1508.00
2019-05-03T13:56:38.553Z,1684.00
2019-05-03T13:58:31.344Z,1820.00
2019-05-03T13:59:31.261Z,1864.00
2019-05-03T14:01:25.216Z,2204.00
2019-05-03T14:02:24.065Z,2496.00
2019-05-03T14:04:16.842Z,3304.00
2019-05-03T14:05:16.857Z,3728.00
2019-05-03T14:07:09.596Z,4184.00
2019-05-03T14:08:09.480Z,4376.00
2019-05-03T14:10:02.263Z,4308.00
2019-05-03T14:11:02.186Z,4196.00
2019-05-03T14:12:54.975Z,3656.00
2019-05-03T14:13:55.301Z,3420.00
2019-05-03T14:15:47.746Z,3172.00
2019-05-03T14:16:47.738Z,3096.00
2019-05-03T14:18:41.436Z,2820.00
2019-05-03T14:19:40.494Z,2540.00
2019-05-03T14:21:34.571Z,1952.00
2019-05-03T14:22:33.223Z,1852.00
2019-05-03T14:24:25.963Z,1700.00
2019-05-03T14:25:25.916Z,1848.00
2019-05-03T14:27:18.668Z,2132.00
2019-05-03T14:28:18.597Z,2104.00
2019-05-03T14:30:11.401Z,1864.00
2019-05-03T14:31:11.337Z,1736.00
2019-05-03T14:33:05.099Z,1524.00
2019-05-03T14:34:06.019Z,1352.00
2019-05-03T14:35:56.821Z,1276.00
2019-05-03T14:36:56.751Z,1468.00
2019-05-03T14:38:49.588Z,1820.00
2019-05-03T14:39:49.561Z,1816.00
2019-05-03T14:41:42.265Z,1780.00
2019-05-03T14:42:42.202Z,1840.00
2019-05-03T14:44:35.719Z,1888.00
2019-05-03T14:45:35.114Z,1884.00
2019-05-03T14:47:27.831Z,1932.00
2019-05-03T14:48:27.764Z,1976.00
2019-05-03T14:50:20.569Z,2104.00
2019-05-03T14:51:20.500Z,2184.00
2019-05-03T14:53:14.762Z,2252.00
2019-05-03T14:54:14.522Z,2276.00
2019-05-03T14:56:07.783Z,2224.00
2019-05-03T14:57:05.917Z,2216.00
2019-05-03T14:58:58.738Z,2384.00
2019-05-03T14:59:58.643Z,2408.00
2019-05-03T15:01:51.493Z,2304.00
2019-05-03T15:02:51.390Z,2232.00
2019-05-03T15:04:44.193Z,2156.00
2019-05-03T15:05:44.124Z,2092.00
2019-05-03T15:07:36.937Z,1892.00
2019-05-03T15:08:36.824Z,1788.00
2019-05-03T15:10:29.605Z,1648.00
2019-05-03T15:11:29.527Z,1560.00
2019-05-03T15:13:22.370Z,1412.00
2019-05-03T15:14:22.296Z,1396.00
2019-05-03T15:16:15.055Z,1416.00
2019-05-03T15:17:15.005Z,1456.00
2019-05-03T15:19:07.809Z,1572.00
2019-05-03T15:20:07.690Z,1624.00
2019-05-03T15:22:00.465Z,1580.00
2019-05-03T15:23:00.394Z,1484.00
2019-05-03T15:24:54.590Z,1412.00
2019-05-03T15:25:54.633Z,1400.00
2019-05-03T15:27:48.525Z,1392.00
2019-05-03T15:28:45.803Z,1424.00
2019-05-03T15:30:38.610Z,1600.00
2019-05-03T15:31:38.519Z,1660.00
2019-05-03T15:33:31.296Z,1620.00
2019-05-03T15:34:31.217Z,1548.00
2019-05-03T15:36:24.063Z,1380.00
2019-05-03T15:37:25.484Z,1336.00
2019-05-03T15:39:16.731Z,1332.00
2019-05-03T15:40:16.663Z,1296.00
2019-05-03T15:42:09.458Z,1260.00
2019-05-03T15:43:09.359Z,1248.00
2019-05-03T15:45:02.187Z,1232.00
2019-05-03T15:46:02.239Z,1232.00
2019-05-03T15:47:55.024Z,1220.00
2019-05-03T15:48:55.229Z,1268.00
2019-05-03T15:50:47.730Z,1504.00
2019-05-03T15:51:47.566Z,1656.00
2019-05-03T15:53:40.349Z,1776.00
2019-05-03T15:54:40.301Z,1784.00
2019-05-03T15:56:33.075Z,1772.00
2019-05-03T15:57:33.008Z,1752.00
2019-05-03T15:59:25.773Z,1612.00
2019-05-03T16:00:25.715Z,1492.00
2019-05-03T16:02:18.488Z,1360.00
2019-05-03T16:03:18.396Z,1336.00
2019-05-03T16:05:11.208Z,1364.00
2019-05-03T16:06:11.106Z,1432.00
2019-05-03T16:08:04.635Z,1624.00
2019-05-03T16:09:04.582Z,1784.00
2019-05-03T16:10:56.620Z,2060.00
2019-05-03T16:11:56.534Z,2152.00
2019-05-03T16:13:49.326Z,2160.00
2019-05-03T16:14:49.282Z,2072.00
2019-05-03T16:16:42.420Z,1900.00
2019-05-03T16:17:42.340Z,1812.00
2019-05-03T16:19:35.470Z,1728.00
2019-05-03T16:20:39.179Z,1672.00
2019-05-03T16:22:27.844Z,1580.00
2019-05-03T16:23:27.778Z,1544.00
2019-05-03T16:25:20.577Z,1468.00
2019-05-03T16:26:20.471Z,1440.00
2019-05-03T16:28:15.157Z,1416.00
2019-05-03T16:29:14.971Z,1432.00
2019-05-03T16:31:05.969Z,1464.00
2019-05-03T16:32:05.891Z,1500.00
2019-05-03T16:33:58.640Z,1540.00
2019-05-03T16:34:58.587Z,1548.00
2019-05-03T16:36:51.364Z,1608.00
2019-05-03T16:37:51.273Z,1592.00
2019-05-03T16:39:45.425Z,1596.00
2019-05-03T16:40:45.164Z,1572.00
2019-05-03T16:42:36.771Z,1544.00
2019-05-03T16:43:36.695Z,1544.00
2019-05-03T16:45:29.493Z,1488.00
2019-05-03T16:46:29.408Z,1516.00
2019-05-03T16:48:22.881Z,1500.00
2019-05-03T16:49:22.123Z,1464.00
2019-05-03T16:51:17.165Z,1276.00
2019-05-03T16:52:17.379Z,1224.00
2019-05-03T16:54:07.676Z,1144.00
2019-05-03T16:55:07.642Z,1152.00
2019-05-03T16:57:00.409Z,1112.00
2019-05-03T16:58:00.332Z,1260.00
2019-05-03T16:59:55.027Z,1252.00
2019-05-03T17:00:55.168Z,1232.00
2019-05-03T17:02:46.140Z,1172.00
2019-05-03T17:03:46.083Z,1172.00
2019-05-03T17:05:38.842Z,1140.00
2019-05-03T17:06:39.363Z,1108.00
2019-05-03T17:08:31.644Z,1064.00
2019-05-03T17:09:31.478Z,916.00
2019-05-03T17:11:24.300Z,900.00
2019-05-03T17:12:25.663Z,884.00
2019-05-03T17:14:17.047Z,860.00
2019-05-03T17:15:16.976Z,824.00
2019-05-03T17:17:09.771Z,768.00
2019-05-03T17:18:09.779Z,752.00
2019-05-03T17:20:02.510Z,752.00
2019-05-03T17:21:02.422Z,736.00
2019-05-03T17:22:55.565Z,768.00
2019-05-03T17:23:55.096Z,784.00
2019-05-03T17:25:47.930Z,712.00
2019-05-03T17:26:47.832Z,708.00
2019-05-03T17:28:41.088Z,708.00
2019-05-03T17:29:40.956Z,724.00
2019-05-03T17:31:35.205Z,788.00
2019-05-03T17:32:35.115Z,820.00
2019-05-03T17:34:26.575Z,852.00
2019-05-03T17:35:26.448Z,848.00
2019-05-03T17:37:19.712Z,816.00
2019-05-03T17:38:19.413Z,792.00
2019-05-03T17:40:12.243Z,740.00